sensor_id;sensor_type;location;lat;lon;timestamp;pressure;altitude;pressure_sealevel;temperature;humidity
70015;BME280;57358;51.094;6.760;2022-09-06T00:01:19;101235.81;;;20.51;67.70
70015;BME280;57358;51.094;6.760;2022-09-06T00:03:49;101246.19;;;20.54;67.09
70015;BME280;57358;51.094;6.760;2022-09-06T00:06:17;101243.66;;;20.52;66.56
70015;BME280;57358;51.094;6.760;2022-09-06T00:08:45;101251.03;;;20.60;66.58
70015;BME280;57358;51.094;6.760;2022-09-06T00:11:14;101262.78;;;20.58;68.53
70015;BME280;57358;51.094;6.760;2022-09-06T00:13:40;100947.97;;;18.52;70.37
70015;BME280;57358;51.094;6.760;2022-09-06T00:16:15;101290.38;;;20.47;72.26
70015;BME280;57358;51.094;6.760;2022-09-06T00:18:43;101195.06;;;19.65;74.85
70015;BME280;57358;51.094;6.760;2022-09-06T00:21:16;101230.88;;;19.61;77.13
70015;BME280;57358;51.094;6.760;2022-09-06T00:23:43;101256.31;;;19.42;75.22
70015;BME280;57358;51.094;6.760;2022-09-06T00:26:09;101295.06;;;20.01;75.07
70015;BME280;57358;51.094;6.760;2022-09-06T00:28:37;101221.97;;;19.50;78.20
70015;BME280;57358;51.094;6.760;2022-09-06T00:31:11;101043.44;;;18.32;78.75
70015;BME280;57358;51.094;6.760;2022-09-06T00:33:39;101167.03;;;18.83;81.35
70015;BME280;57358;51.094;6.760;2022-09-06T00:36:06;101334.44;;;19.98;81.56
70015;BME280;57358;51.094;6.760;2022-09-06T00:38:34;100921.25;;;17.31;81.83
70015;BME280;57358;51.094;6.760;2022-09-06T00:41:01;101351.75;;;19.92;84.14
70015;BME280;57358;51.094;6.760;2022-09-06T00:43:27;101346.09;;;19.85;86.82
70015;BME280;57358;51.094;6.760;2022-09-06T00:45:54;101349.50;;;19.76;87.78
70015;BME280;57358;51.094;6.760;2022-09-06T00:48:22;101069.16;;;18.09;88.03
70015;BME280;57358;51.094;6.760;2022-09-06T00:50:53;100776.09;;;16.17;89.59
70015;BME280;57358;51.094;6.760;2022-09-06T00:53:21;101113.84;;;18.16;92.69
70015;BME280;57358;51.094;6.760;2022-09-06T00:55:48;101308.38;;;19.35;95.62
70015;BME280;57358;51.094;6.760;2022-09-06T00:58:15;101367.06;;;19.45;98.37
70015;BME280;57358;51.094;6.760;2022-09-06T01:00:42;101082.94;;;17.68;100.00
70015;BME280;57358;51.094;6.760;2022-09-06T01:03:10;101272.47;;;18.84;100.00
70015;BME280;57358;51.094;6.760;2022-09-06T01:16:39;101317.06;;;18.81;100.00
70015;BME280;57358;51.094;6.760;2022-09-06T01:29:50;101161.53;;;17.82;100.00
70015;BME280;57358;51.094;6.760;2022-09-06T01:35:16;101283.47;;;18.44;100.00
70015;BME280;57358;51.094;6.760;2022-09-06T01:37:44;101144.25;;;17.41;100.00
70015;BME280;57358;51.094;6.760;2022-09-06T01:40:11;100868.47;;;15.46;100.00
70015;BME280;57358;51.094;6.760;2022-09-06T01:42:38;101098.44;;;17.02;100.00
70015;BME280;57358;51.094;6.760;2022-09-06T01:46:15;101312.19;;;18.39;100.00
70015;BME280;57358;51.094;6.760;2022-09-06T01:51:02;101029.78;;;16.12;100.00
70015;BME280;57358;51.094;6.760;2022-09-06T01:56:24;101318.09;;;18.31;100.00
70015;BME280;57358;51.094;6.760;2022-09-06T01:59:08;101325.31;;;18.29;100.00
70015;BME280;57358;51.094;6.760;2022-09-06T02:01:59;101311.41;;;18.26;100.00
70015;BME280;57358;51.094;6.760;2022-09-06T02:04:32;101323.41;;;18.31;100.00
70015;BME280;57358;51.094;6.760;2022-09-06T02:07:12;101323.88;;;18.25;100.00
70015;BME280;57358;51.094;6.760;2022-09-06T02:09:44;101197.03;;;17.57;100.00
70015;BME280;57358;51.094;6.760;2022-09-06T02:12:15;100578.41;;;13.32;100.00
70015;BME280;57358;51.094;6.760;2022-09-06T02:15:03;101294.59;;;18.14;100.00
70015;BME280;57358;51.094;6.760;2022-09-06T02:17:34;101292.16;;;18.11;100.00
70015;BME280;57358;51.094;6.760;2022-09-06T02:20:15;101079.56;;;16.82;100.00
70015;BME280;57358;51.094;6.760;2022-09-06T02:22:45;101079.63;;;16.81;100.00
70015;BME280;57358;51.094;6.760;2022-09-06T02:25:17;101279.06;;;17.97;100.00
70015;BME280;57358;51.094;6.760;2022-09-06T02:27:46;101234.53;;;17.76;100.00
70015;BME280;57358;51.094;6.760;2022-09-06T02:30:12;101076.66;;;16.48;100.00
70015;BME280;57358;51.094;6.760;2022-09-06T02:32:44;101246.69;;;17.91;100.00
70015;BME280;57358;51.094;6.760;2022-09-06T02:35:14;101129.28;;;17.15;100.00
70015;BME280;57358;51.094;6.760;2022-09-06T02:37:42;100984.72;;;16.25;100.00
70015;BME280;57358;51.094;6.760;2022-09-06T02:40:10;101051.34;;;16.81;100.00
70015;BME280;57358;51.094;6.760;2022-09-06T02:42:38;100935.19;;;16.01;100.00
70015;BME280;57358;51.094;6.760;2022-09-06T02:45:05;101099.03;;;16.94;100.00
70015;BME280;57358;51.094;6.760;2022-09-06T02:47:31;100940.09;;;15.94;100.00
70015;BME280;57358;51.094;6.760;2022-09-06T02:49:58;101090.22;;;16.81;100.00
70015;BME280;57358;51.094;6.760;2022-09-06T02:52:24;100932.78;;;15.98;100.00
70015;BME280;57358;51.094;6.760;2022-09-06T02:54:51;101205.75;;;17.70;100.00
70015;BME280;57358;51.094;6.760;2022-09-06T02:57:17;100930.44;;;16.06;100.00
70015;BME280;57358;51.094;6.760;2022-09-06T02:59:44;100948.91;;;15.82;100.00
70015;BME280;57358;51.094;6.760;2022-09-06T03:02:11;100940.09;;;15.94;100.00
70015;BME280;57358;51.094;6.760;2022-09-06T03:04:38;101205.28;;;17.89;100.00
70015;BME280;57358;51.094;6.760;2022-09-06T03:07:04;101013.53;;;16.66;100.00
70015;BME280;57358;51.094;6.760;2022-09-06T03:09:31;101106.25;;;17.40;100.00
70015;BME280;57358;51.094;6.760;2022-09-06T03:11:57;100903.72;;;16.09;100.00
70015;BME280;57358;51.094;6.760;2022-09-06T03:14:24;101059.47;;;17.15;100.00
70015;BME280;57358;51.094;6.760;2022-09-06T03:16:50;100974.81;;;16.40;100.00
70015;BME280;57358;51.094;6.760;2022-09-06T03:19:17;101171.56;;;17.54;100.00
70015;BME280;57358;51.094;6.760;2022-09-06T03:21:45;100919.66;;;15.71;100.00
70015;BME280;57358;51.094;6.760;2022-09-06T03:24:11;101069.91;;;16.68;100.00
70015;BME280;57358;51.094;6.760;2022-09-06T03:26:38;101158.59;;;17.38;100.00
70015;BME280;57358;51.094;6.760;2022-09-06T03:29:04;101181.22;;;17.31;100.00
70015;BME280;57358;51.094;6.760;2022-09-06T03:31:31;101201.16;;;17.61;100.00
70015;BME280;57358;51.094;6.760;2022-09-06T03:33:58;101177.66;;;17.43;100.00
70015;BME280;57358;51.094;6.760;2022-09-06T03:36:25;101170.03;;;17.39;100.00
70015;BME280;57358;51.094;6.760;2022-09-06T03:38:51;100881.25;;;15.65;100.00
70015;BME280;57358;51.094;6.760;2022-09-06T03:41:19;101179.97;;;17.48;100.00
70015;BME280;57358;51.094;6.760;2022-09-06T03:43:45;101128.31;;;17.17;100.00
70015;BME280;57358;51.094;6.760;2022-09-06T03:46:12;100906.78;;;15.79;100.00
70015;BME280;57358;51.094;6.760;2022-09-06T03:48:38;100892.16;;;15.73;100.00
70015;BME280;57358;51.094;6.760;2022-09-06T03:51:05;101019.81;;;16.52;100.00
70015;BME280;57358;51.094;6.760;2022-09-06T03:53:32;101207.56;;;17.45;100.00
70015;BME280;57358;51.094;6.760;2022-09-06T03:55:58;101097.06;;;17.09;100.00
70015;BME280;57358;51.094;6.760;2022-09-06T03:58:28;101063.50;;;16.97;100.00
70015;BME280;57358;51.094;6.760;2022-09-06T04:01:07;101096.03;;;17.23;100.00
70015;BME280;57358;51.094;6.760;2022-09-06T04:03:35;101051.81;;;16.99;100.00
70015;BME280;57358;51.094;6.760;2022-09-06T04:06:03;100994.06;;;16.54;100.00
70015;BME280;57358;51.094;6.760;2022-09-06T04:08:30;101038.72;;;16.85;100.00
70015;BME280;57358;51.094;6.760;2022-09-06T04:10:58;101079.50;;;16.95;100.00
70015;BME280;57358;51.094;6.760;2022-09-06T04:13:26;100999.97;;;16.34;100.00
70015;BME280;57358;51.094;6.760;2022-09-06T04:15:53;100987.84;;;16.06;100.00
70015;BME280;57358;51.094;6.760;2022-09-06T04:18:20;101080.28;;;16.71;100.00
70015;BME280;57358;51.094;6.760;2022-09-06T04:20:49;101148.53;;;17.06;100.00
70015;BME280;57358;51.094;6.760;2022-09-06T04:23:16;101132.44;;;16.97;100.00
70015;BME280;57358;51.094;6.760;2022-09-06T04:25:50;101121.41;;;16.77;100.00
70015;BME280;57358;51.094;6.760;2022-09-06T04:28:18;101153.09;;;16.91;100.00
70015;BME280;57358;51.094;6.760;2022-09-06T04:30:51;101164.78;;;16.89;100.00
70015;BME280;57358;51.094;6.760;2022-09-06T04:33:18;100900.44;;;15.18;100.00
70015;BME280;57358;51.094;6.760;2022-09-06T04:35:49;101162.97;;;16.77;100.00
70015;BME280;57358;51.094;6.760;2022-09-06T04:38:15;100824.91;;;14.62;100.00
70015;BME280;57358;51.094;6.760;2022-09-06T04:40:42;101175.28;;;16.65;100.00
70015;BME280;57358;51.094;6.760;2022-09-06T04:43:08;100969.34;;;15.02;100.00
70015;BME280;57358;51.094;6.760;2022-09-06T04:45:35;100987.09;;;15.52;100.00
70015;BME280;57358;51.094;6.760;2022-09-06T04:48:02;101093.84;;;16.17;100.00
70015;BME280;57358;51.094;6.760;2022-09-06T04:50:28;100889.94;;;14.90;100.00
70015;BME280;57358;51.094;6.760;2022-09-06T04:52:55;100780.91;;;14.21;100.00
70015;BME280;57358;51.094;6.760;2022-09-06T04:55:21;100959.22;;;15.21;100.00
70015;BME280;57358;51.094;6.760;2022-09-06T04:57:48;101141.69;;;16.40;100.00
70015;BME280;57358;51.094;6.760;2022-09-06T05:00:17;101156.88;;;16.50;100.00
70015;BME280;57358;51.094;6.760;2022-09-06T05:02:43;100948.34;;;15.26;100.00
70015;BME280;57358;51.094;6.760;2022-09-06T05:05:10;100970.16;;;15.42;100.00
70015;BME280;57358;51.094;6.760;2022-09-06T05:07:36;100946.22;;;15.31;100.00
70015;BME280;57358;51.094;6.760;2022-09-06T05:10:03;101104.13;;;16.22;100.00
70015;BME280;57358;51.094;6.760;2022-09-06T05:12:30;101010.88;;;15.52;100.00
70015;BME280;57358;51.094;6.760;2022-09-06T05:14:56;101066.19;;;15.95;100.00
70015;BME280;57358;51.094;6.760;2022-09-06T05:17:23;101035.69;;;15.77;100.00
70015;BME280;57358;51.094;6.760;2022-09-06T05:19:49;101046.31;;;15.90;100.00
70015;BME280;57358;51.094;6.760;2022-09-06T05:22:16;101007.94;;;15.70;100.00
70015;BME280;57358;51.094;6.760;2022-09-06T05:24:43;101167.31;;;16.78;100.00
70015;BME280;57358;51.094;6.760;2022-09-06T05:27:10;101157.38;;;16.81;100.00
70015;BME280;57358;51.094;6.760;2022-09-06T05:29:37;101058.03;;;16.24;100.00
70015;BME280;57358;51.094;6.760;2022-09-06T05:32:04;101158.53;;;16.90;100.00
70015;BME280;57358;51.094;6.760;2022-09-06T05:34:30;101005.84;;;16.01;100.00
70015;BME280;57358;51.094;6.760;2022-09-06T05:36:57;101161.25;;;17.01;100.00
70015;BME280;57358;51.094;6.760;2022-09-06T05:39:23;101077.88;;;16.55;100.00
70015;BME280;57358;51.094;6.760;2022-09-06T05:41:50;101099.91;;;16.82;100.00
70015;BME280;57358;51.094;6.760;2022-09-06T05:44:16;101170.41;;;17.21;100.00
70015;BME280;57358;51.094;6.760;2022-09-06T05:46:44;101035.09;;;16.49;100.00
70015;BME280;57358;51.094;6.760;2022-09-06T05:49:11;101154.47;;;17.34;100.00
70015;BME280;57358;51.094;6.760;2022-09-06T05:51:39;101017.38;;;16.62;100.00
70015;BME280;57358;51.094;6.760;2022-09-06T05:54:05;101144.31;;;17.52;100.00
70015;BME280;57358;51.094;6.760;2022-09-06T05:56:33;101037.19;;;16.93;100.00
70015;BME280;57358;51.094;6.760;2022-09-06T05:58:59;101139.13;;;17.62;100.00
70015;BME280;57358;51.094;6.760;2022-09-06T06:01:29;101145.06;;;17.65;100.00
70015;BME280;57358;51.094;6.760;2022-09-06T06:03:57;101136.53;;;17.73;100.00
70015;BME280;57358;51.094;6.760;2022-09-06T06:06:27;101136.16;;;17.78;100.00
70015;BME280;57358;51.094;6.760;2022-09-06T06:08:54;101148.25;;;17.82;100.00
70015;BME280;57358;51.094;6.760;2022-09-06T06:11:21;101085.75;;;17.42;100.00
70015;BME280;57358;51.094;6.760;2022-09-06T06:13:48;101082.66;;;17.48;100.00
70015;BME280;57358;51.094;6.760;2022-09-06T06:16:18;101140.25;;;18.06;100.00
70015;BME280;57358;51.094;6.760;2022-09-06T06:18:45;101137.53;;;18.19;100.00
70015;BME280;57358;51.094;6.760;2022-09-06T06:23:52;100881.59;;;16.83;100.00
70015;BME280;57358;51.094;6.760;2022-09-06T06:26:20;101100.19;;;18.31;100.00
70015;BME280;57358;51.094;6.760;2022-09-06T06:28:47;100911.47;;;17.20;100.00
70015;BME280;57358;51.094;6.760;2022-09-06T06:31:14;101119.78;;;18.53;100.00
70015;BME280;57358;51.094;6.760;2022-09-06T06:33:40;101041.28;;;18.15;100.00
70015;BME280;57358;51.094;6.760;2022-09-06T06:38:44;101113.25;;;18.91;100.00
70015;BME280;57358;51.094;6.760;2022-09-06T06:41:12;101052.34;;;18.65;100.00
70015;BME280;57358;51.094;6.760;2022-09-06T06:43:39;101116.31;;;19.19;100.00
70015;BME280;57358;51.094;6.760;2022-09-06T06:48:38;101105.38;;;19.33;100.00
70015;BME280;57358;51.094;6.760;2022-09-06T06:51:13;101109.22;;;19.40;100.00
70015;BME280;57358;51.094;6.760;2022-09-06T06:53:40;100992.84;;;18.78;100.00
70015;BME280;57358;51.094;6.760;2022-09-06T06:56:18;101061.69;;;19.36;100.00
70015;BME280;57358;51.094;6.760;2022-09-06T06:58:46;101108.13;;;19.75;100.00
70015;BME280;57358;51.094;6.760;2022-09-06T07:01:15;100991.31;;;19.07;100.00
70015;BME280;57358;51.094;6.760;2022-09-06T07:03:41;101011.91;;;19.26;100.00
70015;BME280;57358;51.094;6.760;2022-09-06T07:06:08;101106.88;;;20.00;100.00
70015;BME280;57358;51.094;6.760;2022-09-06T07:08:40;101058.94;;;19.79;100.00
70015;BME280;57358;51.094;6.760;2022-09-06T07:11:09;101108.41;;;20.24;100.00
70015;BME280;57358;51.094;6.760;2022-09-06T07:13:36;101101.28;;;20.34;100.00
70015;BME280;57358;51.094;6.760;2022-09-06T07:16:10;101102.22;;;20.54;100.00
70015;BME280;57358;51.094;6.760;2022-09-06T07:18:37;101074.25;;;20.48;100.00
70015;BME280;57358;51.094;6.760;2022-09-06T07:21:15;101100.94;;;20.79;100.00
70015;BME280;57358;51.094;6.760;2022-09-06T07:24:04;101051.59;;;20.64;100.00
70015;BME280;57358;51.094;6.760;2022-09-06T07:26:33;101099.00;;;21.01;100.00
70015;BME280;57358;51.094;6.760;2022-09-06T07:29:01;101093.69;;;21.01;100.00
70015;BME280;57358;51.094;6.760;2022-09-06T07:31:29;100839.34;;;19.62;100.00
70015;BME280;57358;51.094;6.760;2022-09-06T07:34:17;100912.84;;;20.15;100.00
70015;BME280;57358;51.094;6.760;2022-09-06T07:36:44;101094.38;;;21.42;100.00
70015;BME280;57358;51.094;6.760;2022-09-06T07:39:11;101035.09;;;21.09;100.00
70015;BME280;57358;51.094;6.760;2022-09-06T07:41:37;101056.84;;;21.04;100.00
70015;BME280;57358;51.094;6.760;2022-09-06T07:44:04;101107.06;;;21.59;100.00
70015;BME280;57358;51.094;6.760;2022-09-06T07:46:30;101102.97;;;21.65;100.00
70015;BME280;57358;51.094;6.760;2022-09-06T07:48:57;101091.56;;;21.63;100.00
70015;BME280;57358;51.094;6.760;2022-09-06T07:51:23;101100.56;;;21.91;100.00
70015;BME280;57358;51.094;6.760;2022-09-06T07:53:52;101062.59;;;21.78;98.80
70015;BME280;57358;51.094;6.760;2022-09-06T07:56:40;101105.94;;;22.19;95.85
70015;BME280;57358;51.094;6.760;2022-09-06T07:59:07;101105.81;;;22.30;94.35
70015;BME280;57358;51.094;6.760;2022-09-06T08:01:38;100932.38;;;21.32;94.08
70015;BME280;57358;51.094;6.760;2022-09-06T08:04:10;101108.78;;;22.55;92.64
70015;BME280;57358;51.094;6.760;2022-09-06T08:06:42;101110.97;;;22.69;91.78
70015;BME280;57358;51.094;6.760;2022-09-06T08:09:29;101097.59;;;22.69;85.21
70015;BME280;57358;51.094;6.760;2022-09-06T08:11:55;101097.50;;;22.61;85.30
70015;BME280;57358;51.094;6.760;2022-09-06T08:14:22;101104.06;;;22.94;82.06
70015;BME280;57358;51.094;6.760;2022-09-06T08:16:48;101006.91;;;22.48;81.05
70015;BME280;57358;51.094;6.760;2022-09-06T08:19:15;100831.72;;;21.52;79.38
70015;BME280;57358;51.094;6.760;2022-09-06T08:21:43;101009.59;;;22.66;79.30
70015;BME280;57358;51.094;6.760;2022-09-06T08:24:09;101099.81;;;23.37;78.63
70015;BME280;57358;51.094;6.760;2022-09-06T08:26:37;101088.66;;;23.24;76.11
70015;BME280;57358;51.094;6.760;2022-09-06T08:29:06;101081.69;;;23.31;76.71
70015;BME280;57358;51.094;6.760;2022-09-06T08:31:35;101087.66;;;23.43;76.37
70015;BME280;57358;51.094;6.760;2022-09-06T08:34:02;100868.13;;;22.27;77.64
70015;BME280;57358;51.094;6.760;2022-09-06T08:36:30;101077.25;;;23.58;74.51
70015;BME280;57358;51.094;6.760;2022-09-06T08:38:57;100973.47;;;23.16;75.05
70015;BME280;57358;51.094;6.760;2022-09-06T08:41:26;101045.00;;;23.67;74.01
70015;BME280;57358;51.094;6.760;2022-09-06T08:44:02;101070.50;;;23.98;72.83
70015;BME280;57358;51.094;6.760;2022-09-06T08:46:59;101077.22;;;24.02;73.34
70015;BME280;57358;51.094;6.760;2022-09-06T08:49:31;101075.28;;;24.12;71.66
70015;BME280;57358;51.094;6.760;2022-09-06T09:00:19;100896.16;;;23.47;68.07
70015;BME280;57358;51.094;6.760;2022-09-06T09:02:49;101061.09;;;24.62;67.76
70015;BME280;57358;51.094;6.760;2022-09-06T09:05:21;100994.88;;;24.28;67.87
70015;BME280;57358;51.094;6.760;2022-09-06T09:08:01;101000.97;;;24.47;69.44
70015;BME280;57358;51.094;6.760;2022-09-06T09:10:37;101044.06;;;24.96;67.93
70015;BME280;57358;51.094;6.760;2022-09-06T09:13:08;101035.66;;;24.99;67.27
70015;BME280;57358;51.094;6.760;2022-09-06T09:15:41;100854.19;;;23.98;65.31
70015;BME280;57358;51.094;6.760;2022-09-06T09:18:07;101044.59;;;25.33;65.00
70015;BME280;57358;51.094;6.760;2022-09-06T09:20:36;100768.19;;;23.83;64.74
70015;BME280;57358;51.094;6.760;2022-09-06T09:23:03;100928.59;;;24.96;63.12
70015;BME280;57358;51.094;6.760;2022-09-06T09:25:31;101028.63;;;25.64;63.97
70015;BME280;57358;51.094;6.760;2022-09-06T09:27:58;101022.22;;;25.65;61.86
70015;BME280;57358;51.094;6.760;2022-09-06T09:30:27;101031.94;;;25.91;62.89
70015;BME280;57358;51.094;6.760;2022-09-06T09:33:27;101026.88;;;25.96;60.57
70015;BME280;57358;51.094;6.760;2022-09-06T09:35:57;101024.03;;;25.97;60.95
70015;BME280;57358;51.094;6.760;2022-09-06T09:38:30;101018.41;;;26.15;60.48
70015;BME280;57358;51.094;6.760;2022-09-06T09:41:03;101016.34;;;26.25;59.86
70015;BME280;57358;51.094;6.760;2022-09-06T09:43:36;100983.34;;;26.00;61.39
70015;BME280;57358;51.094;6.760;2022-09-06T09:46:34;101009.47;;;26.23;60.83
70015;BME280;57358;51.094;6.760;2022-09-06T09:49:14;101012.19;;;26.54;60.99
70015;BME280;57358;51.094;6.760;2022-09-06T09:52:10;101011.72;;;26.74;57.79
70015;BME280;57358;51.094;6.760;2022-09-06T09:54:40;100998.53;;;26.87;57.18
70015;BME280;57358;51.094;6.760;2022-09-06T09:57:09;101030.84;;;26.87;57.14
70015;BME280;57358;51.094;6.760;2022-09-06T09:59:57;100838.72;;;26.11;57.79
70015;BME280;57358;51.094;6.760;2022-09-06T10:02:30;100988.81;;;27.24;57.19
70015;BME280;57358;51.094;6.760;2022-09-06T10:07:46;100960.03;;;27.24;54.88
70015;BME280;57358;51.094;6.760;2022-09-06T10:10:26;100969.50;;;27.12;54.89
70015;BME280;57358;51.094;6.760;2022-09-06T10:13:28;100835.00;;;26.35;56.42
70015;BME280;57358;51.094;6.760;2022-09-06T10:15:56;100845.19;;;26.71;55.22
70015;BME280;57358;51.094;6.760;2022-09-06T10:18:37;101004.34;;;27.90;54.17
70015;BME280;57358;51.094;6.760;2022-09-06T10:21:08;101001.81;;;27.88;52.84
70015;BME280;57358;51.094;6.760;2022-09-06T10:26:58;101004.88;;;28.00;54.01
70015;BME280;57358;51.094;6.760;2022-09-06T10:29:47;100998.72;;;28.21;53.76
70015;BME280;57358;51.094;6.760;2022-09-06T10:35:29;100882.50;;;27.71;53.77
70015;BME280;57358;51.094;6.760;2022-09-06T10:38:28;101002.09;;;28.08;52.55
70015;BME280;57358;51.094;6.760;2022-09-06T10:41:24;100993.28;;;28.36;53.14
70015;BME280;57358;51.094;6.760;2022-09-06T10:46:26;100971.44;;;28.31;52.25
70015;BME280;57358;51.094;6.760;2022-09-06T10:48:54;101009.16;;;28.60;51.50
70015;BME280;57358;51.094;6.760;2022-09-06T10:53:55;101003.16;;;28.43;50.18
70015;BME280;57358;51.094;6.760;2022-09-06T10:56:39;101005.50;;;28.68;50.43
70015;BME280;57358;51.094;6.760;2022-09-06T10:59:11;101001.47;;;28.79;50.99
70015;BME280;57358;51.094;6.760;2022-09-06T11:04:48;100988.03;;;29.07;50.31
70015;BME280;57358;51.094;6.760;2022-09-06T11:07:43;100987.72;;;28.95;49.62
70015;BME280;57358;51.094;6.760;2022-09-06T11:10:34;101001.78;;;28.69;50.73
70015;BME280;57358;51.094;6.760;2022-09-06T11:13:17;100993.69;;;29.12;49.96
70015;BME280;57358;51.094;6.760;2022-09-06T11:16:01;100997.34;;;29.04;50.09
70015;BME280;57358;51.094;6.760;2022-09-06T11:18:37;100993.88;;;29.11;50.45
70015;BME280;57358;51.094;6.760;2022-09-06T11:21:39;101001.31;;;29.30;50.29
70015;BME280;57358;51.094;6.760;2022-09-06T11:29:49;101002.66;;;29.13;50.02
70015;BME280;57358;51.094;6.760;2022-09-06T11:32:39;101000.00;;;29.48;50.24
70015;BME280;57358;51.094;6.760;2022-09-06T11:35:20;100991.19;;;29.11;49.82
70015;BME280;57358;51.094;6.760;2022-09-06T11:37:58;100838.41;;;28.58;50.73
70015;BME280;57358;51.094;6.760;2022-09-06T11:40:27;100934.03;;;29.42;49.28
70015;BME280;57358;51.094;6.760;2022-09-06T11:51:04;100869.47;;;29.26;49.90
70015;BME280;57358;51.094;6.760;2022-09-06T11:56:27;100996.00;;;30.07;48.30
70015;BME280;57358;51.094;6.760;2022-09-06T12:07:27;100975.47;;;30.26;49.40
70015;BME280;57358;51.094;6.760;2022-09-06T12:09:54;100853.63;;;29.57;49.06
70015;BME280;57358;51.094;6.760;2022-09-06T12:12:45;100981.16;;;30.51;48.15
70015;BME280;57358;51.094;6.760;2022-09-06T12:15:24;100980.56;;;30.69;49.01
70015;BME280;57358;51.094;6.760;2022-09-06T12:17:51;100972.88;;;30.79;48.73
70015;BME280;57358;51.094;6.760;2022-09-06T12:26:05;100816.91;;;29.90;47.73
70015;BME280;57358;51.094;6.760;2022-09-06T12:28:45;100939.34;;;30.73;48.05
70015;BME280;57358;51.094;6.760;2022-09-06T12:31:26;100979.31;;;30.65;47.83
70015;BME280;57358;51.094;6.760;2022-09-06T12:33:55;100975.63;;;30.86;47.69
70015;BME280;57358;51.094;6.760;2022-09-06T12:36:25;100973.94;;;30.78;49.06
70015;BME280;57358;51.094;6.760;2022-09-06T12:39:06;100771.78;;;29.42;47.91
70015;BME280;57358;51.094;6.760;2022-09-06T12:41:39;100977.47;;;30.85;47.41
70015;BME280;57358;51.094;6.760;2022-09-06T12:44:09;100902.22;;;30.47;45.29
70015;BME280;57358;51.094;6.760;2022-09-06T12:46:36;100902.88;;;30.69;45.06
70015;BME280;57358;51.094;6.760;2022-09-06T12:49:08;100969.81;;;31.15;45.95
70015;BME280;57358;51.094;6.760;2022-09-06T12:51:37;100941.84;;;30.95;45.59
70015;BME280;57358;51.094;6.760;2022-09-06T12:54:24;100802.59;;;30.16;45.30
70015;BME280;57358;51.094;6.760;2022-09-06T12:56:52;100975.25;;;31.15;45.48
70015;BME280;57358;51.094;6.760;2022-09-06T12:59:25;100934.31;;;30.77;43.66
70015;BME280;57358;51.094;6.760;2022-09-06T13:02:01;100971.66;;;30.95;44.08
70015;BME280;57358;51.094;6.760;2022-09-06T13:04:40;100979.59;;;30.90;42.93
70015;BME280;57358;51.094;6.760;2022-09-06T13:07:10;100979.75;;;30.61;44.03
70015;BME280;57358;51.094;6.760;2022-09-06T13:09:41;100976.44;;;30.86;44.08
70015;BME280;57358;51.094;6.760;2022-09-06T13:12:21;100971.47;;;30.96;43.35
70015;BME280;57358;51.094;6.760;2022-09-06T13:14:52;100970.84;;;31.01;43.74
70015;BME280;57358;51.094;6.760;2022-09-06T13:17:28;100974.59;;;31.07;45.40
70015;BME280;57358;51.094;6.760;2022-09-06T13:19:55;100982.94;;;31.05;43.64
70015;BME280;57358;51.094;6.760;2022-09-06T13:22:41;100979.19;;;30.93;44.11
70015;BME280;57358;51.094;6.760;2022-09-06T13:25:16;100921.00;;;30.82;42.88
70015;BME280;57358;51.094;6.760;2022-09-06T13:27:50;100964.16;;;31.30;43.24
70015;BME280;57358;51.094;6.760;2022-09-06T13:30:37;100971.00;;;30.59;42.39
70015;BME280;57358;51.094;6.760;2022-09-06T13:33:22;100968.91;;;30.61;41.07
70015;BME280;57358;51.094;6.760;2022-09-06T13:36:03;100987.97;;;31.01;41.34
70015;BME280;57358;51.094;6.760;2022-09-06T13:38:33;100968.72;;;31.36;40.17
70015;BME280;57358;51.094;6.760;2022-09-06T13:41:05;100810.97;;;30.54;38.29
70015;BME280;57358;51.094;6.760;2022-09-06T13:43:43;100906.38;;;31.30;37.10
70015;BME280;57358;51.094;6.760;2022-09-06T13:46:10;100810.53;;;30.71;36.83
70015;BME280;57358;51.094;6.760;2022-09-06T13:48:37;100870.94;;;30.85;35.35
70015;BME280;57358;51.094;6.760;2022-09-06T13:51:06;100969.38;;;31.25;36.80
70015;BME280;57358;51.094;6.760;2022-09-06T13:53:33;100963.13;;;31.45;35.38
70015;BME280;57358;51.094;6.760;2022-09-06T13:56:00;100962.88;;;31.66;37.07
70015;BME280;57358;51.094;6.760;2022-09-06T13:58:27;100969.31;;;31.72;33.82
70015;BME280;57358;51.094;6.760;2022-09-06T14:00:55;101010.47;;;31.35;31.89
70015;BME280;57358;51.094;6.760;2022-09-06T14:03:29;100811.78;;;30.35;33.47
70015;BME280;57358;51.094;6.760;2022-09-06T14:05:57;100978.06;;;31.67;33.47
70015;BME280;57358;51.094;6.760;2022-09-06T14:08:26;101009.78;;;31.80;32.50
70015;BME280;57358;51.094;6.760;2022-09-06T14:11:12;100986.59;;;31.84;30.11
70015;BME280;57358;51.094;6.760;2022-09-06T14:13:39;100984.94;;;31.90;30.52
70015;BME280;57358;51.094;6.760;2022-09-06T14:16:05;100825.28;;;30.01;29.83
70015;BME280;57358;51.094;6.760;2022-09-06T14:18:32;100999.81;;;31.34;29.59
70015;BME280;57358;51.094;6.760;2022-09-06T14:20:59;100992.28;;;31.63;31.32
70015;BME280;57358;51.094;6.760;2022-09-06T14:23:25;100928.28;;;31.15;29.31
70015;BME280;57358;51.094;6.760;2022-09-06T14:25:56;101011.94;;;31.31;29.27
70015;BME280;57358;51.094;6.760;2022-09-06T14:28:24;100760.28;;;29.27;29.26
70015;BME280;57358;51.094;6.760;2022-09-06T14:30:52;100995.47;;;30.99;30.75
70015;BME280;57358;51.094;6.760;2022-09-06T14:33:19;100967.72;;;30.97;29.47
70015;BME280;57358;51.094;6.760;2022-09-06T14:35:47;101017.06;;;30.73;28.88
70015;BME280;57358;51.094;6.760;2022-09-06T14:38:14;101012.50;;;30.80;29.03
70015;BME280;57358;51.094;6.760;2022-09-06T14:40:41;101001.22;;;30.83;29.68